createdAt,value
2018-09-10T00:01:59.911Z,64.02
2018-09-10T00:04:28.043Z,63.35
2018-09-10T00:06:56.142Z,63.71
2018-09-10T00:09:24.207Z,63.84
2018-09-10T00:11:52.288Z,64.06
2018-09-10T00:14:20.331Z,64.29
2018-09-10T00:16:48.403Z,63.48
2018-09-10T00:19:16.437Z,64.51
2018-09-10T00:21:44.533Z,65.29
2018-09-10T00:24:12.619Z,65.66
2018-09-10T00:26:40.731Z,64.75
2018-09-10T00:29:08.824Z,65.09
2018-09-10T00:31:36.878Z,64.77
2018-09-10T00:34:04.968Z,64.54
2018-09-10T00:36:33.021Z,64.70
2018-09-10T00:39:01.071Z,64.46
2018-09-10T00:41:29.128Z,64.67
2018-09-10T00:43:57.216Z,64.31
2018-09-10T00:46:25.263Z,65.38
2018-09-10T00:48:53.368Z,65.29
2018-09-10T00:51:21.435Z,64.58
2018-09-10T00:53:49.496Z,64.63
2018-09-10T00:56:17.536Z,64.52
2018-09-10T00:58:46.516Z,65.21
2018-09-10T01:01:14.600Z,64.70
2018-09-10T01:03:42.695Z,65.36
2018-09-10T01:06:10.772Z,65.34
2018-09-10T01:08:38.823Z,64.79
2018-09-10T01:11:06.900Z,64.77
2018-09-10T01:13:34.947Z,64.71
2018-09-10T01:16:03.088Z,64.25
2018-09-10T01:18:31.165Z,65.84
2018-09-10T01:20:59.659Z,65.48
2018-09-10T01:23:27.721Z,64.04
2018-09-10T01:25:55.749Z,64.15
2018-09-10T01:28:23.810Z,64.55
2018-09-10T01:30:51.852Z,63.82
2018-09-10T01:33:25.414Z,63.68
2018-09-10T01:35:53.485Z,63.14
2018-09-10T01:38:21.543Z,63.09
2018-09-10T01:40:49.619Z,63.57
2018-09-10T01:43:17.667Z,63.36
2018-09-10T01:48:20.496Z,63.67
2018-09-10T01:50:48.692Z,63.50
2018-09-10T01:53:16.781Z,63.58
2018-09-10T01:55:44.825Z,63.25
2018-09-10T01:58:12.913Z,63.02
2018-09-10T02:00:40.966Z,63.40
2018-09-10T02:03:09.242Z,63.07
2018-09-10T02:05:37.272Z,63.63
2018-09-10T02:08:05.353Z,63.61
2018-09-10T02:10:33.424Z,63.51
2018-09-10T02:13:01.491Z,63.08
2018-09-10T02:15:29.556Z,63.47
2018-09-10T02:17:57.642Z,63.71
2018-09-10T02:20:25.857Z,63.66
2018-09-10T02:22:53.879Z,64.05
2018-09-10T02:25:21.980Z,64.29
2018-09-10T02:27:50.120Z,63.36
2018-09-10T02:30:18.174Z,63.55
2018-09-10T02:32:46.318Z,63.58
2018-09-10T02:35:14.356Z,63.66
2018-09-10T02:37:42.436Z,64.40
2018-09-10T02:40:10.584Z,63.91
2018-09-10T02:42:38.689Z,63.07
2018-09-10T02:45:06.804Z,63.38
2018-09-10T02:47:34.957Z,63.15
2018-09-10T02:50:03.159Z,62.54
2018-09-10T02:52:31.249Z,63.07
2018-09-10T02:54:59.360Z,62.86
2018-09-10T02:57:27.444Z,62.56
2018-09-10T02:59:55.594Z,62.42
2018-09-10T03:02:23.695Z,62.67
2018-09-10T03:04:51.826Z,63.04
2018-09-10T03:07:19.911Z,62.41
2018-09-10T03:09:48.008Z,62.43
2018-09-10T03:12:16.073Z,62.17
2018-09-10T03:14:44.178Z,61.39
2018-09-10T03:17:12.355Z,61.75
2018-09-10T03:19:40.526Z,61.11
2018-09-10T03:22:08.582Z,61.14
2018-09-10T03:24:36.725Z,60.82
2018-09-10T03:27:04.767Z,60.81
2018-09-10T03:29:32.908Z,61.24
2018-09-10T03:32:00.990Z,61.03
2018-09-10T03:34:29.080Z,61.12
2018-09-10T03:36:57.163Z,60.65
2018-09-10T03:39:25.254Z,59.53
2018-09-10T03:41:53.305Z,59.14
2018-09-10T03:44:21.438Z,58.52
2018-09-10T03:46:49.517Z,57.20
2018-09-10T03:49:17.579Z,56.87
2018-09-10T03:51:46.645Z,56.16
2018-09-10T03:54:14.704Z,56.66
2018-09-10T03:56:42.776Z,57.07
2018-09-10T03:59:10.877Z,57.69
2018-09-10T04:01:38.961Z,58.00
2018-09-10T04:04:07.079Z,57.71
2018-09-10T04:06:35.184Z,58.44
2018-09-10T04:09:03.321Z,58.71
2018-09-10T04:11:31.371Z,58.85
2018-09-10T04:13:59.505Z,58.90
2018-09-10T04:16:27.563Z,58.91
2018-09-10T04:18:55.715Z,58.58
2018-09-10T04:21:23.805Z,59.46
2018-09-10T04:23:51.861Z,59.94
2018-09-10T04:26:19.973Z,59.81
2018-09-10T04:28:48.035Z,59.25
2018-09-10T04:31:16.203Z,59.88
2018-09-10T04:33:44.337Z,60.11
2018-09-10T04:36:12.476Z,60.02
2018-09-10T04:38:40.569Z,59.80
2018-09-10T04:41:08.692Z,60.77
2018-09-10T04:43:36.723Z,60.62
2018-09-10T04:46:04.784Z,60.47
2018-09-10T04:48:32.844Z,59.93
2018-09-10T04:51:00.992Z,60.47
2018-09-10T04:53:29.052Z,58.92
2018-09-10T04:55:57.214Z,58.24
2018-09-10T04:58:25.341Z,57.73
2018-09-10T05:00:55.773Z,56.72
2018-09-10T05:03:23.848Z,56.60
2018-09-10T05:05:52.012Z,57.01
2018-09-10T05:08:20.117Z,56.07
2018-09-10T05:10:48.279Z,55.80
2018-09-10T05:13:16.367Z,55.55
2018-09-10T05:15:44.448Z,55.31
2018-09-10T05:18:12.537Z,55.52
2018-09-10T05:20:40.595Z,55.09
2018-09-10T05:23:08.865Z,55.46
2018-09-10T05:25:36.913Z,55.22
2018-09-10T05:28:05.204Z,55.73
2018-09-10T05:30:33.291Z,55.49
2018-09-10T05:33:01.351Z,55.54
2018-09-10T05:35:29.471Z,56.40
2018-09-10T05:37:57.599Z,56.19
2018-09-10T05:40:25.649Z,56.26
2018-09-10T05:42:53.740Z,56.08
2018-09-10T05:45:21.792Z,56.17
2018-09-10T05:47:50.605Z,55.96
2018-09-10T05:50:18.676Z,56.21
2018-09-10T05:52:46.793Z,55.36
2018-09-10T05:55:14.851Z,55.47
2018-09-10T05:57:42.935Z,54.99
2018-09-10T06:00:11.232Z,55.06
2018-09-10T06:02:41.278Z,54.55
2018-09-10T06:05:11.412Z,55.08
2018-09-10T06:07:40.785Z,54.74
2018-09-10T06:10:10.889Z,54.64
2018-09-10T06:12:39.877Z,54.51
2018-09-10T06:15:08.061Z,54.97
2018-09-10T06:17:36.224Z,54.76
2018-09-10T06:20:04.335Z,54.61
2018-09-10T06:22:32.427Z,54.42
2018-09-10T06:25:00.483Z,54.42
2018-09-10T06:27:28.692Z,53.87
2018-09-10T06:29:56.869Z,54.69
2018-09-10T06:32:25.856Z,54.27
2018-09-10T06:34:54.006Z,53.91
2018-09-10T06:37:22.162Z,54.33
2018-09-10T06:39:50.223Z,54.75
2018-09-10T06:42:18.265Z,54.91
2018-09-10T06:44:46.307Z,54.57
2018-09-10T06:47:14.380Z,54.71
2018-09-10T06:49:42.494Z,55.29
2018-09-10T06:52:10.609Z,54.88
2018-09-10T06:54:38.783Z,55.69
2018-09-10T06:57:06.839Z,55.39
2018-09-10T06:59:34.896Z,55.69
2018-09-10T07:02:02.988Z,56.08
2018-09-10T07:04:31.057Z,56.04
2018-09-10T07:06:59.119Z,56.09
2018-09-10T07:09:27.216Z,56.51
2018-09-10T07:11:55.273Z,56.76
2018-09-10T07:14:23.346Z,56.98
2018-09-10T07:16:51.466Z,57.05
2018-09-10T07:19:19.533Z,56.73
2018-09-10T07:21:47.625Z,56.59
2018-09-10T07:24:15.702Z,56.48
2018-09-10T07:26:43.789Z,55.34
2018-09-10T07:29:12.312Z,55.72
2018-09-10T07:31:40.409Z,55.18
2018-09-10T07:34:08.479Z,55.42
2018-09-10T07:36:36.527Z,55.50
2018-09-10T07:39:07.199Z,54.58
2018-09-10T07:41:35.297Z,53.89
2018-09-10T07:44:04.071Z,53.18
2018-09-10T07:46:32.088Z,52.91
2018-09-10T07:49:00.244Z,52.77
2018-09-10T07:51:28.191Z,53.04
2018-09-10T07:53:56.313Z,53.00
2018-09-10T07:56:25.171Z,53.00
2018-09-10T07:58:53.676Z,53.71
2018-09-10T08:01:21.790Z,54.52
2018-09-10T08:03:49.967Z,54.19
2018-09-10T08:06:18.124Z,54.02
2018-09-10T08:08:46.191Z,53.15
2018-09-10T08:11:14.532Z,51.76
2018-09-10T08:13:42.656Z,51.02
2018-09-10T08:16:10.724Z,49.49
2018-09-10T08:18:38.887Z,50.75
2018-09-10T08:21:06.968Z,50.97
2018-09-10T08:26:12.889Z,49.16
2018-09-10T08:28:44.420Z,48.94
2018-09-10T08:31:12.787Z,48.95
2018-09-10T08:33:41.976Z,49.50
2018-09-10T08:36:11.225Z,50.35
2018-09-10T08:38:39.377Z,50.28
2018-09-10T08:41:09.226Z,50.57
2018-09-10T08:43:37.319Z,50.14
2018-09-10T08:46:05.391Z,50.32
2018-09-10T08:48:35.017Z,49.28
2018-09-10T08:51:03.767Z,49.10
2018-09-10T08:53:34.276Z,49.34
2018-09-10T08:56:02.760Z,48.69
2018-09-10T08:58:33.116Z,48.26
2018-09-10T09:01:01.416Z,47.90
2018-09-10T09:03:30.859Z,48.22
2018-09-10T09:06:01.794Z,48.67
2018-09-10T09:08:31.936Z,49.39
2018-09-10T09:11:00.022Z,50.63
2018-09-10T09:13:31.810Z,51.65
2018-09-10T09:15:59.934Z,51.96
2018-09-10T09:18:29.440Z,52.68
2018-09-10T09:21:02.556Z,53.23
2018-09-10T09:23:30.718Z,53.03
2018-09-10T09:26:02.946Z,53.34
2018-09-10T09:28:34.741Z,53.52
2018-09-10T09:31:02.855Z,53.35
2018-09-10T09:33:30.954Z,53.71
2018-09-10T09:36:04.460Z,53.66
2018-09-10T09:38:37.710Z,52.52
2018-09-10T09:41:11.215Z,52.94
2018-09-10T09:43:44.821Z,52.55
2018-09-10T09:46:15.110Z,53.32
2018-09-10T09:48:43.199Z,53.51
2018-09-10T09:51:11.308Z,52.25
2018-09-10T09:53:39.377Z,53.04
2018-09-10T09:56:07.537Z,52.91
2018-09-10T09:58:35.612Z,52.38
2018-09-10T10:01:09.152Z,52.01
2018-09-10T10:03:42.755Z,51.91
2018-09-10T10:06:10.943Z,52.42
2018-09-10T10:08:39.050Z,52.14
2018-09-10T10:11:07.256Z,51.50
2018-09-10T10:13:35.291Z,51.52
2018-09-10T10:16:03.444Z,51.23
2018-09-10T10:18:31.556Z,50.15
2018-09-10T10:20:59.611Z,49.71
2018-09-10T10:23:27.696Z,49.46
2018-09-10T10:25:55.837Z,49.54
2018-09-10T10:28:24.044Z,49.13
2018-09-10T10:30:52.100Z,49.32
2018-09-10T10:33:20.184Z,48.57
2018-09-10T10:35:48.245Z,48.66
2018-09-10T10:38:16.361Z,48.21
2018-09-10T10:40:44.452Z,47.95
2018-09-10T10:43:12.568Z,48.62
2018-09-10T10:45:40.709Z,48.27
2018-09-10T10:48:08.795Z,48.77
2018-09-10T10:50:37.159Z,48.98
2018-09-10T10:53:05.247Z,48.21
2018-09-10T10:55:33.302Z,47.86
2018-09-10T10:58:01.515Z,48.12
2018-09-10T11:00:29.736Z,47.23
2018-09-10T11:02:57.910Z,46.79
2018-09-10T11:05:26.119Z,47.47
2018-09-10T11:07:54.531Z,47.85
2018-09-10T11:10:23.139Z,47.12
2018-09-10T11:12:51.268Z,48.42
2018-09-10T11:15:19.328Z,48.40
2018-09-10T11:17:47.419Z,48.71
2018-09-10T11:20:15.492Z,47.97
2018-09-10T11:22:50.065Z,48.42
2018-09-10T11:25:18.159Z,48.47
2018-09-10T11:27:46.344Z,47.89
2018-09-10T11:30:14.352Z,47.86
2018-09-10T11:32:42.403Z,47.68
2018-09-10T11:35:10.484Z,47.09
2018-09-10T11:37:38.561Z,46.25
2018-09-10T11:40:06.635Z,46.26
2018-09-10T11:42:34.701Z,46.49
2018-09-10T11:45:02.791Z,45.92
2018-09-10T11:47:30.849Z,46.42
2018-09-10T11:49:58.900Z,46.31
2018-09-10T11:52:26.973Z,45.94
2018-09-10T11:54:55.024Z,45.78
2018-09-10T11:57:23.099Z,45.26
2018-09-10T11:59:51.161Z,44.65
2018-09-10T12:02:19.213Z,45.15
2018-09-10T12:04:47.250Z,45.10
2018-09-10T12:07:15.294Z,44.39
2018-09-10T12:09:43.349Z,44.11
2018-09-10T12:12:11.466Z,45.59
2018-09-10T12:14:39.608Z,45.14
2018-09-10T12:17:07.723Z,45.47
2018-09-10T12:19:35.795Z,45.74
2018-09-10T12:22:03.856Z,44.22
2018-09-10T12:24:31.914Z,44.02
2018-09-10T12:27:00.028Z,43.98
2018-09-10T12:29:28.179Z,43.63
2018-09-10T12:31:56.209Z,44.52
2018-09-10T12:34:24.303Z,44.27
2018-09-10T12:36:52.363Z,45.47
2018-09-10T12:39:20.508Z,45.62
2018-09-10T12:41:48.560Z,45.80
2018-09-10T12:44:16.627Z,45.19
2018-09-10T12:46:44.731Z,45.76
2018-09-10T12:49:12.779Z,45.02
2018-09-10T12:51:41.400Z,44.76
2018-09-10T12:54:09.635Z,44.97
2018-09-10T12:56:39.494Z,45.85
2018-09-10T12:59:07.563Z,46.19
2018-09-10T13:01:35.612Z,45.35
2018-09-10T13:06:47.088Z,45.51
2018-09-10T13:09:16.202Z,45.42
2018-09-10T13:11:44.918Z,44.72
2018-09-10T13:14:13.929Z,43.75
2018-09-10T13:16:42.008Z,43.70
2018-09-10T13:19:10.050Z,44.36
2018-09-10T13:21:38.099Z,43.83
2018-09-10T13:24:06.203Z,44.01
2018-09-10T13:26:34.327Z,43.99
2018-09-10T13:29:02.698Z,43.15
2018-09-10T13:31:30.753Z,43.71
2018-09-10T13:34:03.347Z,43.16
2018-09-10T13:36:31.436Z,42.70
2018-09-10T13:39:01.398Z,43.30
2018-09-10T13:41:31.009Z,43.04
2018-09-10T13:43:59.626Z,42.89
2018-09-10T13:46:27.680Z,43.15
2018-09-10T13:48:56.068Z,42.76
2018-09-10T13:51:24.307Z,43.13
2018-09-10T13:53:54.790Z,43.21
2018-09-10T13:56:23.090Z,43.73
2018-09-10T13:58:51.175Z,43.52
2018-09-10T14:01:19.275Z,44.28
2018-09-10T14:03:47.378Z,44.11
2018-09-10T14:06:16.064Z,43.89
2018-09-10T14:08:44.124Z,44.67
2018-09-10T14:11:13.279Z,44.45
2018-09-10T14:13:42.259Z,43.92
2018-09-10T14:16:10.403Z,43.96
2018-09-10T14:18:38.490Z,44.82
2018-09-10T14:21:07.286Z,44.88
2018-09-10T14:23:36.392Z,44.94
2018-09-10T14:26:04.732Z,45.04
2018-09-10T14:28:32.949Z,45.82
2018-09-10T14:31:01.044Z,45.74
2018-09-10T14:33:29.213Z,45.72
2018-09-10T14:35:57.371Z,45.44
2018-09-10T14:38:25.544Z,45.66
2018-09-10T14:40:53.715Z,46.46
2018-09-10T14:43:21.831Z,46.47
2018-09-10T14:45:49.940Z,46.91
2018-09-10T14:48:18.015Z,47.17
2018-09-10T14:50:46.113Z,47.17
2018-09-10T14:53:14.193Z,47.87
2018-09-10T14:55:42.293Z,47.69
2018-09-10T14:58:10.352Z,47.74
2018-09-10T15:00:38.437Z,47.79
2018-09-10T15:03:06.524Z,48.42
2018-09-10T15:05:34.572Z,48.79
2018-09-10T15:08:02.646Z,48.34
2018-09-10T15:10:30.712Z,49.19
2018-09-10T15:12:58.812Z,49.19
2018-09-10T15:15:27.423Z,49.47
2018-09-10T15:17:55.640Z,49.75
2018-09-10T15:20:23.720Z,49.82
2018-09-10T15:22:51.827Z,50.30
2018-09-10T15:25:19.938Z,49.56
2018-09-10T15:27:48.014Z,49.75
2018-09-10T15:30:16.077Z,50.21
2018-09-10T15:32:44.237Z,50.07
2018-09-10T15:35:12.288Z,49.39
2018-09-10T15:37:40.372Z,49.59
2018-09-10T15:40:08.462Z,50.08
2018-09-10T15:42:36.566Z,50.20
2018-09-10T15:45:04.661Z,50.16
2018-09-10T15:47:32.758Z,49.60
2018-09-10T15:50:00.820Z,49.51
2018-09-10T15:52:31.904Z,49.88
2018-09-10T15:55:00.024Z,49.13
2018-09-10T15:57:28.105Z,48.08
2018-09-10T15:59:56.241Z,48.00
2018-09-10T16:02:24.326Z,48.05
2018-09-10T16:04:53.106Z,48.31
2018-09-10T16:07:21.221Z,48.49
2018-09-10T16:09:49.236Z,47.85
2018-09-10T16:12:17.284Z,48.62
2018-09-10T16:14:45.368Z,47.85
2018-09-10T16:17:13.482Z,48.21
2018-09-10T16:19:41.567Z,48.75
2018-09-10T16:22:09.665Z,48.49
2018-09-10T16:24:37.761Z,49.22
2018-09-10T16:27:05.805Z,49.01
2018-09-10T16:29:33.897Z,49.48
2018-09-10T16:32:01.978Z,49.58
2018-09-10T16:34:30.052Z,49.38
2018-09-10T16:36:58.108Z,49.53
2018-09-10T16:39:26.197Z,49.67
2018-09-10T16:41:54.256Z,49.93
2018-09-10T16:44:22.348Z,50.00
2018-09-10T16:46:50.404Z,50.24
2018-09-10T16:49:18.459Z,50.63
2018-09-10T16:51:46.528Z,50.79
2018-09-10T16:54:14.622Z,50.98
2018-09-10T16:56:42.705Z,50.86
2018-09-10T16:59:10.883Z,51.41
2018-09-10T17:01:38.935Z,51.73
2018-09-10T17:04:07.012Z,51.78
2018-09-10T17:06:35.084Z,52.07
2018-09-10T17:09:03.342Z,51.47
2018-09-10T17:11:31.402Z,51.89
2018-09-10T17:13:59.475Z,52.28
2018-09-10T17:16:27.579Z,52.23
2018-09-10T17:18:55.660Z,53.07
2018-09-10T17:21:23.729Z,53.20
2018-09-10T17:23:51.817Z,52.53
2018-09-10T17:26:19.860Z,53.30
2018-09-10T17:28:47.931Z,53.20
2018-09-10T17:31:15.995Z,53.52
2018-09-10T17:33:44.111Z,53.66
2018-09-10T17:36:12.187Z,53.92
2018-09-10T17:38:40.544Z,54.08
2018-09-10T17:41:08.666Z,53.42
2018-09-10T17:43:36.716Z,54.44
2018-09-10T17:46:04.832Z,53.88
2018-09-10T17:48:32.882Z,54.29
2018-09-10T17:51:00.958Z,54.62
2018-09-10T17:53:28.995Z,54.54
2018-09-10T17:55:57.092Z,54.37
2018-09-10T17:58:25.171Z,54.84
2018-09-10T18:00:53.238Z,54.54
2018-09-10T18:03:21.299Z,55.04
2018-09-10T18:05:49.512Z,55.02
2018-09-10T18:08:17.589Z,54.83
2018-09-10T18:10:45.665Z,55.82
2018-09-10T18:13:13.727Z,54.74
2018-09-10T18:15:41.840Z,55.70
2018-09-10T18:18:09.970Z,54.91
2018-09-10T18:20:38.081Z,55.42
2018-09-10T18:23:06.120Z,55.89
2018-09-10T18:25:34.173Z,55.72
2018-09-10T18:28:02.219Z,56.29
2018-09-10T18:30:30.398Z,55.73
2018-09-10T18:32:58.488Z,55.86
2018-09-10T18:35:26.580Z,56.18
2018-09-10T18:37:54.795Z,55.80
2018-09-10T18:40:23.000Z,55.91
2018-09-10T18:42:51.063Z,56.58
2018-09-10T18:45:19.432Z,56.72
2018-09-10T18:47:53.824Z,56.31
2018-09-10T18:50:21.914Z,56.72
2018-09-10T18:52:49.980Z,56.30
2018-09-10T18:55:18.144Z,56.63
2018-09-10T18:57:46.215Z,56.87
2018-09-10T19:00:14.384Z,56.87
2018-09-10T19:03:45.301Z,56.97
2018-09-10T19:06:13.450Z,57.03
2018-09-10T19:08:41.537Z,57.51
2018-09-10T19:11:09.607Z,58.14
2018-09-10T19:13:37.644Z,57.41
2018-09-10T19:16:05.708Z,57.97
2018-09-10T19:18:37.777Z,57.64
2018-09-10T19:21:06.051Z,58.30
2018-09-10T19:23:34.753Z,57.84
2018-09-10T19:26:03.129Z,58.65
2018-09-10T19:28:31.209Z,58.72
2018-09-10T19:30:59.312Z,57.80
2018-09-10T19:33:27.420Z,58.71
2018-09-10T19:35:55.508Z,59.27
2018-09-10T19:38:24.772Z,58.36
2018-09-10T19:40:52.907Z,58.95
2018-09-10T19:43:20.971Z,58.38
2018-09-10T19:45:49.067Z,59.15
2018-09-10T19:48:17.144Z,59.17
2018-09-10T19:50:45.247Z,59.29
2018-09-10T19:53:13.292Z,59.32
2018-09-10T19:55:41.472Z,59.11
2018-09-10T19:58:09.625Z,59.04
2018-09-10T20:00:37.672Z,59.46
2018-09-10T20:03:05.730Z,58.89
2018-09-10T20:05:33.760Z,59.51
2018-09-10T20:08:01.867Z,59.75
2018-09-10T20:10:29.889Z,59.47
2018-09-10T20:12:57.945Z,59.47
2018-09-10T20:15:26.101Z,59.46
2018-09-10T20:17:54.190Z,60.00
2018-09-10T20:20:22.337Z,60.11
2018-09-10T20:22:50.383Z,60.54
2018-09-10T20:25:18.471Z,60.14
2018-09-10T20:27:46.550Z,60.72
2018-09-10T20:30:14.735Z,60.31
2018-09-10T20:32:42.844Z,60.52
2018-09-10T20:35:10.929Z,60.77
2018-09-10T20:37:39.016Z,60.12
2018-09-10T20:40:07.079Z,60.35
2018-09-10T20:42:35.151Z,60.76
2018-09-10T20:45:03.241Z,60.45
2018-09-10T20:47:31.372Z,60.87
2018-09-10T20:49:59.471Z,60.57
2018-09-10T20:52:27.545Z,61.12
2018-09-10T20:54:55.572Z,60.95
2018-09-10T20:57:23.667Z,61.35
2018-09-10T20:59:51.769Z,60.98
2018-09-10T21:02:20.095Z,61.06
2018-09-10T21:04:48.185Z,61.62
2018-09-10T21:07:16.301Z,62.02
2018-09-10T21:09:44.353Z,62.41
2018-09-10T21:12:12.425Z,61.88
2018-09-10T21:14:40.468Z,62.46
2018-09-10T21:17:08.537Z,62.56
2018-09-10T21:19:36.580Z,62.57
2018-09-10T21:22:04.648Z,63.09
2018-09-10T21:24:32.695Z,62.92
2018-09-10T21:27:00.758Z,63.10
2018-09-10T21:29:28.830Z,63.17
2018-09-10T21:31:56.904Z,63.33
2018-09-10T21:34:24.997Z,62.62
2018-09-10T21:36:53.083Z,63.05
2018-09-10T21:39:21.165Z,63.54
2018-09-10T21:41:49.215Z,63.12
2018-09-10T21:44:17.311Z,63.32
2018-09-10T21:46:45.377Z,63.32
2018-09-10T21:49:20.078Z,63.08
2018-09-10T21:51:48.137Z,63.46
2018-09-10T21:54:16.207Z,63.29
2018-09-10T21:56:44.268Z,63.33
2018-09-10T21:59:12.347Z,64.05
2018-09-10T22:01:40.410Z,63.59
2018-09-10T22:04:08.521Z,63.55
2018-09-10T22:06:36.759Z,63.94
2018-09-10T22:12:04.054Z,63.85
2018-09-10T22:14:33.256Z,63.86
2018-09-10T22:17:01.728Z,64.43
2018-09-10T22:19:29.831Z,64.27
2018-09-10T22:21:57.967Z,63.77
2018-09-10T22:24:26.153Z,63.96
2018-09-10T22:26:54.316Z,63.96
2018-09-10T22:29:22.404Z,63.96
2018-09-10T22:31:50.441Z,63.79
2018-09-10T22:34:18.513Z,63.50
2018-09-10T22:36:46.562Z,63.86
2018-09-10T22:39:15.403Z,63.78
2018-09-10T22:41:43.876Z,63.28
2018-09-10T22:44:11.959Z,63.55
2018-09-10T22:46:39.993Z,63.65
2018-09-10T22:49:08.659Z,64.13
2018-09-10T22:51:37.280Z,63.72
2018-09-10T22:54:05.340Z,63.83
2018-09-10T22:56:33.420Z,63.87
2018-09-10T22:59:01.483Z,64.14
2018-09-10T23:01:29.519Z,64.29
2018-09-10T23:03:57.584Z,64.33
2018-09-10T23:06:25.637Z,63.70
2018-09-10T23:08:53.680Z,64.15
2018-09-10T23:11:21.721Z,64.05
2018-09-10T23:13:49.829Z,64.18
2018-09-10T23:16:17.864Z,64.26
2018-09-10T23:18:46.149Z,64.32
2018-09-10T23:21:14.183Z,64.45
2018-09-10T23:23:42.223Z,64.69
2018-09-10T23:26:10.280Z,64.69
2018-09-10T23:28:38.395Z,64.23
2018-09-10T23:31:06.933Z,64.53
2018-09-10T23:33:35.935Z,64.68
2018-09-10T23:36:03.994Z,65.17
2018-09-10T23:38:32.096Z,64.77
2018-09-10T23:41:00.177Z,64.66
2018-09-10T23:43:28.271Z,64.82
2018-09-10T23:45:56.473Z,64.94
2018-09-10T23:48:24.579Z,65.01
2018-09-10T23:50:52.637Z,64.68
2018-09-10T23:53:20.705Z,65.29
2018-09-10T23:55:48.774Z,65.43
2018-09-10T23:58:16.832Z,65.78
